createdAt,value
2022-09-01T00:00:31.696Z,5.00
2022-09-01T00:02:59.717Z,4.03
2022-09-01T00:05:27.931Z,5.47
2022-09-01T00:07:55.879Z,4.38
2022-09-01T00:10:23.862Z,4.22
2022-09-01T00:12:51.795Z,5.25
2022-09-01T00:15:19.711Z,5.45
2022-09-01T00:17:47.719Z,4.32
2022-09-01T00:20:20.089Z,5.05
2022-09-01T00:22:48.930Z,4.40
2022-09-01T00:25:19.927Z,4.78
2022-09-01T00:27:49.415Z,4.30
2022-09-01T00:30:17.831Z,5.10
2022-09-01T00:32:47.829Z,5.70
2022-09-01T00:35:18.419Z,4.30
2022-09-01T00:37:46.750Z,5.25
2022-09-01T00:40:16.561Z,6.13
2022-09-01T00:42:46.115Z,4.70
2022-09-01T00:45:14.563Z,6.45
2022-09-01T00:47:43.356Z,4.47
2022-09-01T00:50:13.737Z,8.15
2022-09-01T00:52:50.386Z,5.70
2022-09-01T00:55:26.013Z,4.57
2022-09-01T00:57:54.203Z,4.82
2022-09-01T01:00:26.271Z,4.57
2022-09-01T01:02:57.612Z,4.80
2022-09-01T01:08:04.372Z,4.85
2022-09-01T01:10:36.964Z,5.72
2022-09-01T01:13:16.443Z,4.35
2022-09-01T01:15:45.684Z,4.82
2022-09-01T01:18:16.419Z,4.78
2022-09-01T01:21:24.070Z,4.50
2022-09-01T01:24:20.564Z,4.90
2022-09-01T01:26:48.633Z,4.90
2022-09-01T01:29:18.794Z,5.78
2022-09-01T01:31:51.219Z,4.72
2022-09-01T01:34:20.857Z,4.25
2022-09-01T01:36:50.142Z,5.93
2022-09-01T01:39:22.274Z,5.07
2022-09-01T01:41:52.084Z,6.18
2022-09-01T01:44:29.263Z,3.97
2022-09-01T01:47:01.103Z,4.90
2022-09-01T01:49:32.186Z,5.53
2022-09-01T01:52:01.171Z,4.40
2022-09-01T01:54:34.290Z,5.72
2022-09-01T01:57:05.464Z,5.00
2022-09-01T01:59:34.913Z,7.57
2022-09-01T02:02:06.224Z,4.55
2022-09-01T02:04:35.590Z,7.28
2022-09-01T02:07:14.831Z,4.55
2022-09-01T02:09:47.079Z,4.95
2022-09-01T02:12:20.208Z,5.60
2022-09-01T02:14:49.535Z,6.95
2022-09-01T02:17:17.798Z,5.88
2022-09-01T02:19:45.817Z,5.00
2022-09-01T02:22:13.778Z,5.60
2022-09-01T02:24:47.573Z,7.00
2022-09-01T02:27:16.805Z,5.25
2022-09-01T02:29:44.709Z,5.40
2022-09-01T02:32:13.366Z,5.35
2022-09-01T02:34:41.386Z,5.50
2022-09-01T02:37:09.455Z,6.10
2022-09-01T02:39:41.654Z,5.70
2022-09-01T02:42:14.913Z,6.43
2022-09-01T02:44:44.696Z,6.25
2022-09-01T02:47:13.083Z,6.10
2022-09-01T02:49:41.820Z,6.05
2022-09-01T02:52:10.030Z,6.30
2022-09-01T02:54:38.055Z,6.22
2022-09-01T02:57:06.110Z,5.38
2022-09-01T02:59:35.931Z,6.45
2022-09-01T03:02:03.991Z,7.35
2022-09-01T03:04:36.081Z,6.03
2022-09-01T03:07:06.565Z,7.10
2022-09-01T03:09:36.193Z,7.00
2022-09-01T03:12:04.584Z,6.18
2022-09-01T03:14:33.091Z,7.30
2022-09-01T03:17:01.727Z,7.28
2022-09-01T03:19:33.385Z,6.45
2022-09-01T03:22:01.737Z,7.32
2022-09-01T03:24:33.302Z,6.72
2022-09-01T03:27:02.219Z,5.95
2022-09-01T03:29:30.149Z,9.18
2022-09-01T03:31:58.302Z,7.93
2022-09-01T03:34:27.518Z,7.47
2022-09-01T03:36:57.515Z,6.45
2022-09-01T03:39:27.915Z,8.15
2022-09-01T03:41:59.396Z,5.68
2022-09-01T03:44:28.474Z,6.25
2022-09-01T03:46:59.099Z,8.68
2022-09-01T03:49:32.156Z,8.32
2022-09-01T03:52:01.381Z,6.90
2022-09-01T03:54:31.350Z,6.68
2022-09-01T03:57:00.939Z,7.72
2022-09-01T03:59:31.025Z,5.97
2022-09-01T04:02:01.352Z,6.72
2022-09-01T04:04:33.824Z,5.55
2022-09-01T04:07:02.591Z,7.80
2022-09-01T04:09:34.855Z,7.30
2022-09-01T04:12:04.674Z,6.30
2022-09-01T04:14:32.832Z,5.70
2022-09-01T04:17:19.438Z,6.63
2022-09-01T04:19:48.550Z,9.00
2022-09-01T04:22:16.782Z,5.82
2022-09-01T04:24:46.834Z,7.70
2022-09-01T04:27:19.097Z,5.95
2022-09-01T04:29:47.957Z,5.05
2022-09-01T04:32:16.770Z,5.65
2022-09-01T04:34:52.068Z,6.32
2022-09-01T04:37:22.349Z,6.72
2022-09-01T04:40:02.145Z,6.78
2022-09-01T04:42:33.513Z,6.22
2022-09-01T04:45:10.802Z,5.80
2022-09-01T04:47:43.476Z,6.05
2022-09-01T04:50:18.317Z,6.43
2022-09-01T04:53:15.183Z,8.77
2022-09-01T04:55:50.191Z,6.82
2022-09-01T04:58:21.771Z,6.15
2022-09-01T05:00:54.502Z,6.28
2022-09-01T05:03:25.178Z,6.45
2022-09-01T05:06:01.271Z,6.70
2022-09-01T05:08:32.729Z,7.13
2022-09-01T05:11:08.952Z,7.18
2022-09-01T05:13:50.799Z,8.25
2022-09-01T05:16:34.064Z,7.32
2022-09-01T05:19:03.151Z,6.40
2022-09-01T05:21:34.916Z,7.30
2022-09-01T05:24:04.894Z,6.40
2022-09-01T05:26:35.749Z,5.82
2022-09-01T05:29:11.608Z,8.25
2022-09-01T05:31:41.054Z,8.77
2022-09-01T05:34:10.882Z,7.00
2022-09-01T05:36:47.275Z,6.65
2022-09-01T05:39:15.919Z,5.95
2022-09-01T05:41:44.357Z,5.40
2022-09-01T05:44:15.203Z,8.15
2022-09-01T05:46:45.115Z,6.97
2022-09-01T05:49:17.327Z,6.87
2022-09-01T05:51:54.154Z,8.85
2022-09-01T05:54:30.646Z,6.38
2022-09-01T05:57:17.481Z,6.72
2022-09-01T05:59:54.583Z,5.80
2022-09-01T06:02:28.166Z,8.75
2022-09-01T06:04:58.364Z,6.45
2022-09-01T06:07:31.822Z,6.38
2022-09-01T06:10:02.242Z,4.70
2022-09-01T06:12:30.574Z,4.80
2022-09-01T06:14:59.374Z,5.80
2022-09-01T06:17:29.437Z,7.32
2022-09-01T06:20:01.922Z,4.63
2022-09-01T06:22:31.039Z,6.07
2022-09-01T06:25:07.856Z,7.50
2022-09-01T06:27:42.283Z,5.57
2022-09-01T06:30:23.462Z,5.35
2022-09-01T06:35:33.483Z,6.45
2022-09-01T06:38:02.998Z,8.50
2022-09-01T06:40:51.197Z,4.50
2022-09-01T06:43:24.179Z,6.13
2022-09-01T06:46:12.251Z,4.82
2022-09-01T06:48:47.776Z,3.95
2022-09-01T06:51:21.046Z,3.38
2022-09-01T06:54:03.181Z,3.10
2022-09-01T06:59:34.852Z,3.72
2022-09-01T07:04:51.085Z,2.58
2022-09-01T07:10:27.813Z,2.88
2022-09-01T07:13:06.419Z,3.40
2022-09-01T07:18:29.836Z,8.60
2022-09-01T07:21:35.516Z,3.47
2022-09-01T07:24:11.176Z,4.15
2022-09-01T07:26:47.620Z,4.00
2022-09-01T07:29:16.330Z,2.17
2022-09-01T07:34:39.046Z,5.20
2022-09-01T07:39:57.563Z,3.22
2022-09-01T07:42:30.687Z,4.15
2022-09-01T07:43:28.382Z,2.35
2022-09-01T07:46:39.547Z,4.38
2022-09-01T07:52:04.847Z,2.65
2022-09-01T07:54:35.104Z,3.90
2022-09-01T07:57:05.271Z,2.70
2022-09-01T07:59:37.149Z,4.45
2022-09-01T08:02:21.626Z,4.32
2022-09-01T08:04:50.227Z,3.83
2022-09-01T08:07:19.232Z,2.10
2022-09-01T08:09:47.755Z,3.55
2022-09-01T08:12:17.385Z,2.70
2022-09-01T08:17:51.502Z,3.45
2022-09-01T08:20:20.477Z,3.47
2022-09-01T08:22:53.008Z,3.05
2022-09-01T08:25:41.980Z,3.10
2022-09-01T08:28:10.880Z,3.35
2022-09-01T08:30:49.072Z,3.55
2022-09-01T08:33:22.416Z,3.53
2022-09-01T08:35:50.815Z,2.08
2022-09-01T08:38:20.522Z,2.35
2022-09-01T08:40:57.179Z,2.97
2022-09-01T08:43:57.881Z,2.88
2022-09-01T08:46:36.103Z,2.78
2022-09-01T08:49:24.766Z,2.35
2022-09-01T08:52:22.970Z,2.20
2022-09-01T08:55:08.394Z,1.77
2022-09-01T08:57:48.906Z,2.28
2022-09-01T09:00:28.380Z,2.58
2022-09-01T09:03:13.261Z,3.47
2022-09-01T09:05:47.005Z,1.35
2022-09-01T09:08:23.731Z,1.35
2022-09-01T09:11:06.610Z,3.05
2022-09-01T09:14:12.829Z,1.60
2022-09-01T09:16:51.635Z,2.55
2022-09-01T09:19:44.991Z,3.03
2022-09-01T09:22:18.131Z,2.58
2022-09-01T09:24:56.845Z,3.30
2022-09-01T09:27:36.353Z,1.80
2022-09-01T09:30:21.634Z,5.90
2022-09-01T09:35:53.563Z,2.35
2022-09-01T09:38:30.011Z,2.08
2022-09-01T09:41:19.934Z,3.08
2022-09-01T09:44:17.536Z,3.28
2022-09-01T09:46:48.572Z,3.03
2022-09-01T09:52:11.373Z,3.30
2022-09-01T09:54:42.376Z,2.28
2022-09-01T10:00:04.326Z,1.58
2022-09-01T10:02:46.671Z,2.47
2022-09-01T10:05:45.269Z,1.95
2022-09-01T10:08:45.853Z,2.13
2022-09-01T10:11:41.283Z,3.35
2022-09-01T10:14:35.856Z,2.92
2022-09-01T10:17:15.827Z,3.80
2022-09-01T10:20:11.450Z,1.33
2022-09-01T10:22:42.502Z,3.08
2022-09-01T10:25:23.737Z,4.20
2022-09-01T10:27:59.191Z,3.58
2022-09-01T10:30:27.981Z,3.28
2022-09-01T10:33:06.768Z,3.83
2022-09-01T10:35:45.483Z,3.47
2022-09-01T10:38:21.779Z,2.53
2022-09-01T10:41:10.095Z,1.80
2022-09-01T10:43:50.998Z,4.20
2022-09-01T10:46:26.473Z,3.05
2022-09-01T10:49:03.066Z,2.17
2022-09-01T10:51:50.140Z,3.80
2022-09-01T10:54:55.838Z,3.88
2022-09-01T10:57:45.721Z,2.92
2022-09-01T11:00:37.096Z,2.83
2022-09-01T11:03:31.425Z,3.03
2022-09-01T11:06:12.010Z,3.10
2022-09-01T11:08:57.602Z,3.05
2022-09-01T11:11:46.854Z,3.50
2022-09-01T11:14:27.930Z,2.45
2022-09-01T11:19:40.971Z,3.60
2022-09-01T11:22:18.653Z,3.00
2022-09-01T11:24:55.988Z,2.80
2022-09-01T11:27:50.090Z,2.88
2022-09-01T11:30:31.926Z,2.17
2022-09-01T11:33:23.589Z,2.90
2022-09-01T11:36:03.123Z,2.85
2022-09-01T11:38:42.886Z,2.17
2022-09-01T11:41:35.937Z,2.08
2022-09-01T11:44:18.628Z,3.25
2022-09-01T11:46:47.434Z,3.00
2022-09-01T11:49:50.643Z,3.60
2022-09-01T11:52:21.246Z,2.38
2022-09-01T11:54:51.407Z,2.95
2022-09-01T11:57:20.941Z,1.85
2022-09-01T11:59:48.876Z,2.00
2022-09-01T12:02:36.882Z,2.22
2022-09-01T12:05:35.774Z,2.38
2022-09-01T12:08:15.843Z,3.83
2022-09-01T12:10:45.464Z,2.55
2022-09-01T12:13:19.102Z,1.63
2022-09-01T12:16:17.398Z,3.90
2022-09-01T12:18:49.304Z,2.15
2022-09-01T12:21:35.208Z,4.82
2022-09-01T12:24:38.370Z,1.40
2022-09-01T12:27:06.374Z,2.85
2022-09-01T12:29:34.546Z,3.38
2022-09-01T12:32:03.097Z,2.47
2022-09-01T12:34:48.966Z,2.10
2022-09-01T12:37:16.868Z,2.67
2022-09-01T12:39:47.280Z,3.47
2022-09-01T12:42:26.149Z,2.38
2022-09-01T12:45:01.007Z,4.32
2022-09-01T12:47:35.051Z,4.45
2022-09-01T12:50:12.783Z,2.67
2022-09-01T12:53:14.873Z,3.30
2022-09-01T12:56:05.231Z,2.80
2022-09-01T12:58:33.742Z,2.40
2022-09-01T13:01:18.236Z,4.32
2022-09-01T13:04:30.534Z,3.08
2022-09-01T13:07:04.322Z,3.28
2022-09-01T13:09:32.430Z,2.88
2022-09-01T13:12:33.033Z,3.85
2022-09-01T13:15:01.109Z,2.50
2022-09-01T13:17:29.063Z,3.92
2022-09-01T13:19:57.025Z,2.42
2022-09-01T13:22:25.014Z,4.40
2022-09-01T13:24:53.180Z,4.15
2022-09-01T13:27:23.091Z,3.90
2022-09-01T13:29:52.368Z,2.92
2022-09-01T13:32:22.551Z,2.63
2022-09-01T13:34:52.731Z,6.80
2022-09-01T13:37:22.205Z,2.60
2022-09-01T13:39:50.783Z,2.25
2022-09-01T13:42:19.477Z,2.80
2022-09-01T13:44:55.181Z,1.80
2022-09-01T13:47:30.354Z,4.88
2022-09-01T13:50:09.361Z,1.83
2022-09-01T13:52:40.475Z,2.17
2022-09-01T13:55:12.727Z,1.97
2022-09-01T13:57:40.855Z,3.65
2022-09-01T14:00:15.170Z,3.55
2022-09-01T14:02:51.363Z,3.33
2022-09-01T14:05:21.663Z,1.35
2022-09-01T14:07:50.203Z,1.73
2022-09-01T14:10:19.575Z,2.25
2022-09-01T14:12:47.720Z,2.78
2022-09-01T14:15:20.579Z,3.65
2022-09-01T14:17:57.281Z,1.75
2022-09-01T14:20:33.463Z,2.97
2022-09-01T14:23:05.859Z,3.25
2022-09-01T14:25:34.577Z,2.33
2022-09-01T14:28:04.954Z,3.35
2022-09-01T14:30:33.913Z,1.88
2022-09-01T14:33:03.768Z,3.13
2022-09-01T14:35:34.763Z,2.65
2022-09-01T14:40:32.231Z,2.38
2022-09-01T14:43:00.820Z,2.25
2022-09-01T14:45:31.926Z,3.17
2022-09-01T14:50:33.442Z,3.00
2022-09-01T14:53:04.232Z,2.85
2022-09-01T14:55:33.294Z,1.90
2022-09-01T14:58:01.953Z,3.33
2022-09-01T15:00:32.542Z,3.90
2022-09-01T15:03:00.766Z,1.30
2022-09-01T15:05:29.623Z,1.83
2022-09-01T15:08:09.032Z,1.25
2022-09-01T15:10:37.628Z,2.17
2022-09-01T15:13:08.839Z,2.45
2022-09-01T15:15:36.983Z,2.70
2022-09-01T15:18:05.013Z,5.13
2022-09-01T15:20:48.022Z,5.78
2022-09-01T15:23:19.405Z,1.58
2022-09-01T15:25:48.718Z,1.98
2022-09-01T15:28:16.765Z,2.35
2022-09-01T15:30:46.722Z,3.22
2022-09-01T15:33:16.157Z,3.72
2022-09-01T15:35:47.683Z,2.72
2022-09-01T15:38:17.742Z,2.22
2022-09-01T15:40:55.492Z,2.13
2022-09-01T15:43:26.297Z,2.15
2022-09-01T15:45:54.233Z,2.08
2022-09-01T15:48:22.153Z,4.00
2022-09-01T15:50:50.202Z,1.83
2022-09-01T15:53:20.038Z,2.45
2022-09-01T15:55:49.723Z,2.50
2022-09-01T15:58:20.573Z,1.60
2022-09-01T16:00:52.555Z,3.30
2022-09-01T16:03:25.381Z,2.30
2022-09-01T16:05:53.327Z,2.63
2022-09-01T16:08:21.274Z,2.50
2022-09-01T16:10:49.243Z,2.50
2022-09-01T16:13:17.179Z,2.90
2022-09-01T16:16:25.238Z,3.45
2022-09-01T16:19:06.300Z,2.25
2022-09-01T16:21:52.303Z,2.88
2022-09-01T16:24:20.698Z,2.65
2022-09-01T16:26:50.335Z,1.92
2022-09-01T16:29:33.761Z,3.05
2022-09-01T16:32:01.913Z,1.65
2022-09-01T16:34:33.150Z,4.53
2022-09-01T16:39:55.048Z,3.22
2022-09-01T16:42:47.880Z,4.45
2022-09-01T16:45:28.756Z,1.85
2022-09-01T16:48:19.968Z,3.50
2022-09-01T16:51:19.086Z,2.80
2022-09-01T16:54:02.548Z,2.60
2022-09-01T16:57:04.770Z,1.40
2022-09-01T16:59:55.549Z,4.57
2022-09-01T17:02:50.301Z,3.25
2022-09-01T17:05:32.159Z,4.68
2022-09-01T17:08:18.687Z,3.50
2022-09-01T17:11:11.395Z,4.70
2022-09-01T17:13:43.846Z,5.43
2022-09-01T17:16:38.272Z,3.95
2022-09-01T17:19:15.989Z,4.30
2022-09-01T17:21:57.212Z,2.85
2022-09-01T17:24:38.117Z,2.25
2022-09-01T17:27:28.584Z,5.88
2022-09-01T17:29:58.254Z,2.28
2022-09-01T17:32:48.386Z,2.25
2022-09-01T17:35:29.615Z,3.63
2022-09-01T17:38:15.162Z,3.28
2022-09-01T17:41:20.800Z,1.85
2022-09-01T17:44:04.037Z,4.25
2022-09-01T17:46:41.078Z,3.55
2022-09-01T17:49:34.327Z,2.75
2022-09-01T17:52:17.839Z,2.20
2022-09-01T17:55:09.131Z,3.03
2022-09-01T17:57:43.753Z,4.35
2022-09-01T18:00:25.445Z,2.10
2022-09-01T18:02:53.314Z,4.53
2022-09-01T18:05:24.420Z,3.78
2022-09-01T18:08:14.710Z,4.80
2022-09-01T18:10:59.588Z,6.53
2022-09-01T18:13:53.173Z,4.38
2022-09-01T18:16:26.736Z,5.03
2022-09-01T18:18:55.613Z,4.57
2022-09-01T18:21:30.235Z,6.38
2022-09-01T18:24:32.343Z,4.00
2022-09-01T18:27:02.681Z,4.25
2022-09-01T18:29:32.750Z,8.68
2022-09-01T18:32:25.822Z,8.52
2022-09-01T18:35:18.789Z,7.38
2022-09-01T18:38:10.755Z,6.53
2022-09-01T18:41:00.285Z,5.10
2022-09-01T18:43:45.975Z,5.85
2022-09-01T18:46:36.591Z,7.65
2022-09-01T18:49:23.887Z,3.88
2022-09-01T18:52:08.920Z,5.05
2022-09-01T18:54:47.049Z,3.63
2022-09-01T18:57:22.164Z,5.20
2022-09-01T19:00:18.976Z,3.42
2022-09-01T19:03:12.325Z,3.90
2022-09-01T19:06:11.241Z,5.60
2022-09-01T19:08:50.941Z,3.50
2022-09-01T19:11:27.693Z,3.22
2022-09-01T19:14:10.786Z,3.53
2022-09-01T19:17:00.163Z,3.00
2022-09-01T19:19:52.660Z,4.85
2022-09-01T19:22:28.548Z,3.45
2022-09-01T19:25:26.226Z,6.68
2022-09-01T19:28:22.339Z,2.70
2022-09-01T19:31:01.867Z,3.45
2022-09-01T19:33:37.814Z,4.30
2022-09-01T19:36:10.491Z,4.93
2022-09-01T19:38:39.972Z,2.50
2022-09-01T19:41:41.740Z,2.17
2022-09-01T19:44:41.039Z,3.08
2022-09-01T19:47:28.200Z,3.00
2022-09-01T19:50:06.344Z,6.28
2022-09-01T19:52:46.044Z,6.85
2022-09-01T19:55:30.952Z,3.88
2022-09-01T19:58:07.686Z,3.90
2022-09-01T20:00:51.665Z,6.05
2022-09-01T20:03:35.514Z,5.28
2022-09-01T20:06:20.181Z,4.93
2022-09-01T20:08:53.276Z,3.83
2022-09-01T20:11:52.364Z,2.42
2022-09-01T20:14:38.275Z,3.50
2022-09-01T20:17:09.634Z,3.33
2022-09-01T20:22:23.194Z,2.70
2022-09-01T20:24:58.271Z,4.95
2022-09-01T20:27:48.619Z,3.45
2022-09-01T20:30:24.235Z,1.80
2022-09-01T20:33:20.906Z,2.83
2022-09-01T20:36:09.986Z,5.00
2022-09-01T20:39:22.797Z,3.42
2022-09-01T20:42:09.671Z,2.72
2022-09-01T20:44:40.613Z,3.05
2022-09-01T20:47:09.018Z,3.15
2022-09-01T20:49:39.610Z,4.05
2022-09-01T20:52:37.950Z,4.68
2022-09-01T20:55:22.557Z,3.90
2022-09-01T20:58:28.489Z,2.20
2022-09-01T21:01:44.514Z,4.82
2022-09-01T21:04:24.199Z,3.97
2022-09-01T21:07:05.906Z,2.40
2022-09-01T21:09:57.231Z,2.78
2022-09-01T21:12:43.437Z,2.38
2022-09-01T21:15:48.830Z,3.55
2022-09-01T21:18:38.146Z,4.55
2022-09-01T21:21:33.607Z,3.92
2022-09-01T21:24:01.839Z,1.98
2022-09-01T21:26:31.074Z,3.30
2022-09-01T21:29:08.139Z,4.45
2022-09-01T21:31:36.536Z,3.60
2022-09-01T21:34:06.846Z,3.28
2022-09-01T21:36:34.813Z,4.10
2022-09-01T21:39:03.941Z,2.25
2022-09-01T21:41:31.940Z,3.03
2022-09-01T21:43:59.848Z,2.75
2022-09-01T21:46:28.208Z,2.97
2022-09-01T21:48:56.551Z,5.15
2022-09-01T21:51:24.578Z,3.95
2022-09-01T21:53:52.642Z,3.08
2022-09-01T21:56:25.706Z,2.95
2022-09-01T21:58:56.029Z,2.95
2022-09-01T22:01:24.032Z,4.30
2022-09-01T22:03:52.013Z,7.95
2022-09-01T22:06:20.096Z,3.20
2022-09-01T22:08:48.421Z,4.15
2022-09-01T22:11:17.611Z,3.78
2022-09-01T22:13:45.618Z,4.38
2022-09-01T22:16:19.286Z,2.65
2022-09-01T22:18:48.406Z,5.65
2022-09-01T22:21:17.887Z,2.33
2022-09-01T22:23:46.013Z,3.45
2022-09-01T22:26:23.643Z,2.25
2022-09-01T22:28:52.102Z,3.88
2022-09-01T22:31:23.203Z,3.17
2022-09-01T22:33:51.587Z,4.43
2022-09-01T22:36:30.538Z,2.22
2022-09-01T22:39:02.534Z,2.65
2022-09-01T22:41:32.763Z,4.40
2022-09-01T22:44:02.481Z,3.42
2022-09-01T22:46:31.901Z,2.38
2022-09-01T22:49:01.102Z,1.92
2022-09-01T22:51:30.187Z,3.13
2022-09-01T22:53:58.152Z,2.83
2022-09-01T22:56:29.775Z,1.98
2022-09-01T22:59:02.754Z,3.38
2022-09-01T23:01:33.332Z,2.47
2022-09-01T23:04:03.189Z,2.13
2022-09-01T23:06:32.444Z,5.65
2022-09-01T23:09:03.141Z,3.75
2022-09-01T23:11:31.175Z,3.05
2022-09-01T23:13:59.565Z,3.47
2022-09-01T23:16:27.811Z,1.55
2022-09-01T23:18:56.704Z,4.43
2022-09-01T23:21:29.965Z,5.60
2022-09-01T23:23:59.409Z,2.95
2022-09-01T23:26:28.952Z,4.72
2022-09-01T23:28:56.935Z,5.25
2022-09-01T23:31:28.073Z,2.00
2022-09-01T23:33:56.289Z,6.20
2022-09-01T23:36:26.282Z,2.15
2022-09-01T23:38:57.393Z,2.33
2022-09-01T23:41:33.080Z,6.22
2022-09-01T23:44:04.497Z,3.55
2022-09-01T23:46:36.428Z,2.50
2022-09-01T23:49:05.309Z,1.83
2022-09-01T23:51:33.515Z,4.82
2022-09-01T23:54:01.501Z,5.45
2022-09-01T23:56:30.951Z,4.38
2022-09-01T23:59:00.577Z,4.45
